Sparta, WI (54656)

7:24 AM CST on December 04, 2016 (GMT -0600)
Sparta-Fort McCoy | | Change Station
Active Advisory: Winter Weather Advisory Active Notice: Public Information Statement

Elev 837 ft 43.96 °N, 90.74 °W | Updated 9 minutes ago

Light Snow
Light Snow
31 °F
Feels Like 25 °F
N
6
Wind Variable Wind from ESE

Today
High -- | Low -- °F
--% Chance of Precip.
Yesterday
High -- | Low -- °F
Precip. -- in
Pressure 30.05 in
Visibility 2.0 miles
Clouds Overcast 1000 ft
Windchill 25 °F
Dew Point 31 °F
Humidity 98%
Rainfall 0.00 in
Snow Depth Not available.
7:21 AM 4:25 PM
Waxing Crescent, 22% visible
METAR KCMY 041315Z AUTO 12005KT 2SM -SN OVC010 00/M01 A3005 RMK AO2 T10051008
Pressure 30.05 in
Visibility 2.0 miles
Clouds Overcast 1000 ft
Windchill 25 °F
Dew Point 31 °F
Humidity 98%
Rainfall 0.00 in
Snow Depth Not available.
7:21 AM 4:25 PM
Waxing Crescent, 22% visible
METAR KCMY 041315Z AUTO 12005KT 2SM -SN OVC010 00/M01 A3005 RMK AO2 T10051008

10-Day Weather Forecast

Almanac

Astronomy

Dec. 04, 2016 Rise Set
Actual Time
Civil Twilight
Nautical Twilight
Astronomical Twilight
Moon
Length of Visible Light
Length of Day
Tomorrow will be .
, % of the Moon is Illuminated

Today's Extremes

State Highs State Lows

Community

WunderPhotos

Upload Photos

1,955,593 photos uploaded!

WunderBlog® & News

Nearby

Air Quality

  Air Quality AQ Index Pollutant
Not available.

Snow Depth

Station Depth Elevation

Earthquake Activity

City Distance Mag. Time & Date
Minimum magnitude displayed is 2.5.

Coastal Water Temperatures

Place Temperature

Stations

Nearby Weather Stations

Station Location Temp. Windchill Dew Point Humidity Wind Precip. Elev Updated Type
                   

Watches & Warnings

Winter Weather Advisory
Issued: 3:15 AM CST Dec. 4, 2016 – National Weather Service

... Winter Weather Advisory remains in effect until 3 PM CST this
afternoon...

* periods of snow continue today... heaviest this morning into
early afternoon.

* Total snow accumulation of 2 to 5 inches is expected.

* Look for reduced visibilities at times.

* Plan on slippery Road conditions.

Precautionary/preparedness actions...

A Winter Weather Advisory means that periods of snow will cause
travel difficulties. Be prepared for slippery roads and limited
visibilities... and use caution while driving. The latest Road
conditions for the state you are calling from can be obtained by
calling 5 1 1.